Time;durP1;ratioP1;P1;durP2;ratioP2;P2;SDS_P1;SDS_P2;PMS_P1;PMS_P2;Temp;Humidity;BMP_temperature;BMP_pressure;BME280_temperature;BME280_humidity;BME280_pressure;Samples;Min_cycle;Max_cycle;Signal;HPM_P1;HPM_P2
2022/12/25 00:01:19;;;;;;;14.23;7.35;;;15.70;62.00;;;;;;4977046;28;20031;-87
2022/12/25 00:03:45;;;;;;;10.07;6.13;;;15.80;62.10;;;;;;4961822;28;20030;-86
2022/12/25 00:06:10;;;;;;;14.88;7.60;;;15.90;62.00;;;;;;4962087;28;20030;-86
2022/12/25 00:08:38;;;;;;;12.63;6.78;;;15.80;61.80;;;;;;4962310;28;20117;-83
2022/12/25 00:11:15;;;;;;;12.60;7.00;;;15.70;62.30;;;;;;4970423;28;20047;-88
2022/12/25 00:13:43;;;;;;;13.52;6.72;;;15.60;62.30;;;;;;4978155;28;20034;-83
2022/12/25 00:16:15;;;;;;;11.45;6.22;;;15.50;62.60;;;;;;4978408;28;20161;-83
2022/12/25 00:18:46;;;;;;;13.40;6.43;;;15.60;62.20;;;;;;4978475;28;20126;-85
2022/12/25 00:21:13;;;;;;;14.68;6.43;;;15.80;62.00;;;;;;4978120;28;20470;-84
2022/12/25 00:23:38;;;;;;;12.55;7.32;;;15.90;61.70;;;;;;4977800;28;20081;-86
2022/12/25 00:26:07;;;;;;;8.90;6.00;;;15.90;61.70;;;;;;4978181;28;20026;-84
2022/12/25 00:28:33;;;;;;;9.30;5.32;;;15.80;61.70;;;;;;4977878;28;20105;-85
2022/12/25 00:31:02;;;;;;;10.77;6.50;;;15.80;61.40;;;;;;4977717;28;20085;-85
2022/12/25 00:33:28;;;;;;;10.80;6.25;;;15.90;60.90;;;;;;4978153;28;20054;-86
2022/12/25 00:35:59;;;;;;;11.57;5.85;;;15.70;61.80;;;;;;4977695;28;20031;-86
2022/12/25 00:38:25;;;;;;;12.55;6.13;;;15.80;61.80;;;;;;4977708;28;20030;-89
2022/12/25 00:40:53;;;;;;;12.75;5.75;;;15.80;61.40;;;;;;4977509;28;20023;-88
2022/12/25 00:43:19;;;;;;;11.52;6.55;;;15.60;61.70;;;;;;4977726;28;20035;-88
2022/12/25 00:46:00;;;;;;;10.73;6.03;;;15.60;62.30;;;;;;4977609;28;20053;-87
2022/12/25 00:48:29;;;;;;;10.05;6.28;;;15.70;61.70;;;;;;4977251;28;20039;-84
2022/12/25 00:50:56;;;;;;;12.68;5.60;;;15.80;61.60;;;;;;4974442;28;20031;-84
2022/12/25 00:53:23;;;;;;;13.10;5.63;;;15.90;61.20;;;;;;4957803;28;20082;-84
2022/12/25 00:56:00;;;;;;;11.35;5.38;;;15.30;62.50;;;;;;4958313;29;20023;-83
2022/12/25 00:58:28;;;;;;;9.65;5.53;;;15.10;62.80;;;;;;4957610;29;20031;-85
2022/12/25 01:00:55;;;;;;;12.25;5.80;;;15.00;63.60;;;;;;4958055;29;20114;-84
2022/12/25 01:03:21;;;;;;;14.38;6.18;;;14.80;64.10;;;;;;4957949;29;20482;-85
2022/12/25 01:05:56;;;;;;;12.00;6.38;;;14.90;63.90;;;;;;4958498;29;20027;-85
2022/12/25 01:08:31;;;;;;;13.07;6.80;;;15.30;62.80;;;;;;4973717;28;20038;-86
2022/12/25 01:11:06;;;;;;;11.25;6.70;;;15.40;62.60;;;;;;4973840;28;20051;-87
2022/12/25 01:13:34;;;;;;;12.32;6.32;;;15.50;62.40;;;;;;4974484;28;20400;-84
2022/12/25 01:16:07;;;;;;;9.13;6.25;;;15.60;62.30;;;;;;4973729;28;20031;-87
2022/12/25 01:18:36;;;;;;;12.48;6.18;;;15.70;61.90;;;;;;4973814;28;20039;-84
2022/12/25 01:21:11;;;;;;;11.60;5.97;;;15.60;62.00;;;;;;4973572;28;20063;-86
2022/12/25 01:23:37;;;;;;;10.43;5.93;;;15.50;62.00;;;;;;4973333;28;20075;-87
2022/12/25 01:26:08;;;;;;;11.77;6.20;;;15.50;61.90;;;;;;4973303;28;20036;-90
2022/12/25 01:28:37;;;;;;;11.07;6.28;;;15.50;62.00;;;;;;4973495;28;20027;-85
2022/12/25 01:31:13;;;;;;;12.98;6.70;;;15.30;62.30;;;;;;4974035;28;20031;-84
2022/12/25 01:33:43;;;;;;;11.10;6.25;;;15.40;62.50;;;;;;4973724;28;20024;-85
2022/12/25 01:36:19;;;;;;;11.63;6.38;;;15.50;62.30;;;;;;4973524;28;20533;-86
2022/12/25 01:38:46;;;;;;;10.85;6.47;;;15.30;62.90;;;;;;4973652;28;20031;-85
2022/12/25 01:41:13;;;;;;;10.60;6.30;;;15.30;62.90;;;;;;4973291;28;20030;-85
2022/12/25 01:44:06;;;;;;;11.18;5.78;;;15.50;62.20;;;;;;4973911;28;20051;-85
2022/12/25 01:46:33;;;;;;;10.48;5.85;;;15.50;62.10;;;;;;4973474;28;20118;-89
2022/12/25 01:49:08;;;;;;;11.07;5.82;;;15.60;61.80;;;;;;4973201;28;20039;-85
2022/12/25 01:51:42;;;;;;;9.20;5.60;;;15.60;61.80;;;;;;4972821;28;20031;-86
2022/12/25 01:54:23;;;;;;;12.00;6.18;;;15.70;61.60;;;;;;4973225;28;20114;-87
2022/12/25 01:56:51;;;;;;;9.10;5.88;;;15.70;61.50;;;;;;4973260;28;20029;-86
2022/12/25 01:59:20;;;;;;;10.23;5.57;;;15.50;61.90;;;;;;4976296;28;20030;-85
2022/12/25 02:01:47;;;;;;;11.65;5.70;;;15.50;61.70;;;;;;4971055;28;20027;-85
2022/12/25 02:04:41;;;;;;;10.77;5.53;;;15.20;62.30;;;;;;4956940;28;20082;-85
2022/12/25 02:07:23;;;;;;;13.23;6.72;;;15.20;62.30;;;;;;4971263;28;20039;-87
2022/12/25 02:09:49;;;;;;;13.30;6.55;;;15.20;62.40;;;;;;4957325;28;20034;-86
2022/12/25 02:12:31;;;;;;;13.57;5.88;;;15.30;62.20;;;;;;4940993;29;20118;-84
2022/12/25 02:14:59;;;;;;;9.13;4.93;;;15.30;62.40;;;;;;4940292;29;20055;-85
2022/12/25 02:17:40;;;;;;;11.38;5.65;;;15.30;62.30;;;;;;4940864;29;20027;-85
2022/12/25 02:20:11;;;;;;;9.98;5.70;;;15.40;61.90;;;;;;4957492;29;20059;-85
2022/12/25 02:23:16;;;;;;;9.95;5.70;;;15.30;62.10;;;;;;4956775;29;20497;-85
2022/12/25 02:26:10;;;;;;;11.75;5.80;;;15.10;62.60;;;;;;4940271;29;20498;-87
2022/12/25 02:28:58;;;;;;;11.27;5.63;;;15.20;62.50;;;;;;4956442;29;20032;-85
2022/12/25 02:31:48;;;;;;;11.73;5.82;;;15.10;62.30;;;;;;4951958;28;20026;-85
2022/12/25 02:34:22;;;;;;;10.90;6.18;;;15.20;62.50;;;;;;4972035;28;20489;-84
2022/12/25 02:37:04;;;;;;;10.40;5.32;;;15.30;62.00;;;;;;4945240;29;20035;-84
2022/12/25 02:40:08;;;;;;;11.68;5.65;;;15.40;62.00;;;;;;4939905;29;20505;-87
2022/12/25 03:08:38;;;;;;;11.65;6.60;;;15.50;60.70;;;;;;4976959;28;20126;-85
2022/12/25 03:16:53;;;;;;;11.25;6.10;;;15.40;61.40;;;;;;4975415;28;20037;-86
2022/12/25 03:27:50;;;;;;;12.15;5.75;;;14.80;63.00;;;;;;4976094;28;20049;-88
2022/12/25 03:33:25;;;;;;;10.45;5.63;;;14.80;62.70;;;;;;4976269;28;20089;-85
2022/12/25 03:36:05;;;;;;;9.63;5.65;;;14.40;64.20;;;;;;4975056;28;20027;-86
2022/12/25 04:36:47;;;;;;;13.23;7.40;;;14.50;61.90;;;;;;4938574;29;20047;-83
2022/12/25 04:39:13;;;;;;;12.55;7.00;;;14.60;61.20;;;;;;4938360;29;20031;-83
2022/12/25 04:41:38;;;;;;;13.05;6.75;;;14.40;61.00;;;;;;4927583;29;20032;-84
2022/12/25 04:44:04;;;;;;;14.32;6.97;;;14.20;61.50;;;;;;4938440;29;20372;-85
2022/12/25 04:46:30;;;;;;;11.77;6.28;;;13.80;62.20;;;;;;4937764;29;20038;-86
2022/12/25 04:48:55;;;;;;;13.35;6.53;;;13.50;63.00;;;;;;4937769;29;20032;-87
2022/12/25 04:51:23;;;;;;;17.90;7.20;;;13.50;62.90;;;;;;4927798;29;20035;-90
2022/12/25 04:53:51;;;;;;;12.98;8.02;;;13.50;63.10;;;;;;4919576;29;20515;-84
2022/12/25 04:56:19;;;;;;;12.43;6.88;;;13.70;62.50;;;;;;4919526;29;20040;-85
2022/12/25 04:58:46;;;;;;;14.68;8.32;;;13.90;61.90;;;;;;4923029;29;20064;-86
2022/12/25 05:01:13;;;;;;;25.65;13.20;;;13.80;62.40;;;;;;4937826;29;20055;-86
2022/12/25 05:03:39;;;;;;;33.67;20.23;;;13.80;62.70;;;;;;4965547;28;20117;-87
2022/12/25 05:06:05;;;;;;;42.78;23.38;;;13.90;62.30;;;;;;4964524;28;20031;-83
2022/12/25 05:08:39;;;;;;;22.48;12.05;;;14.00;62.10;;;;;;4969340;28;20046;-86
2022/12/25 05:11:08;;;;;;;38.72;19.42;;;14.20;62.50;;;;;;4976667;28;20042;-86
2022/12/25 05:13:37;;;;;;;25.77;12.40;;;14.20;61.60;;;;;;4977176;28;20069;-88
2022/12/25 05:16:07;;;;;;;30.83;15.25;;;14.30;61.40;;;;;;4973157;28;20398;-86
2022/12/25 05:18:33;;;;;;;30.40;14.27;;;14.30;61.10;;;;;;4957262;29;20073;-86
2022/12/25 05:21:07;;;;;;;19.08;9.82;;;14.50;60.90;;;;;;4957899;29;20019;-84
2022/12/25 05:23:33;;;;;;;14.23;8.07;;;14.60;60.70;;;;;;4957607;29;20498;-86
2022/12/25 05:26:08;;;;;;;12.85;7.25;;;14.50;60.70;;;;;;4957553;29;20032;-85
2022/12/25 05:28:43;;;;;;;11.75;5.85;;;14.50;61.00;;;;;;4957627;29;20031;-84
2022/12/25 05:31:09;;;;;;;12.90;6.50;;;14.40;61.40;;;;;;4957581;29;20143;-85
2022/12/25 05:33:35;;;;;;;13.32;6.07;;;14.40;61.40;;;;;;4957665;29;20035;-87
2022/12/25 05:36:11;;;;;;;10.63;5.38;;;14.20;62.00;;;;;;4957492;29;20027;-83
2022/12/25 05:38:37;;;;;;;14.52;5.85;;;14.20;62.70;;;;;;4956617;28;20063;-85
2022/12/25 05:41:03;;;;;;;11.52;5.72;;;14.30;62.40;;;;;;4957199;29;20505;-87
2022/12/25 05:43:29;;;;;;;10.95;6.10;;;14.40;61.90;;;;;;4957265;29;20046;-85
2022/12/25 05:45:55;;;;;;;10.43;5.93;;;14.50;61.70;;;;;;4956986;29;20051;-86
2022/12/25 05:48:21;;;;;;;12.55;6.22;;;14.50;61.20;;;;;;4974557;28;20062;-85
2022/12/25 05:50:46;;;;;;;10.43;5.15;;;14.40;61.30;;;;;;4973520;28;20031;-85
2022/12/25 05:53:14;;;;;;;11.93;4.90;;;14.20;62.60;;;;;;4957290;29;20028;-86
2022/12/25 05:55:46;;;;;;;8.80;5.13;;;14.10;63.00;;;;;;4971959;28;20019;-88
2022/12/25 05:58:12;;;;;;;11.25;5.00;;;14.10;63.10;;;;;;4976131;28;20114;-86
2022/12/25 06:00:39;;;;;;;8.80;5.07;;;14.20;62.90;;;;;;4976190;28;20027;-84
2022/12/25 06:03:05;;;;;;;12.07;5.10;;;14.20;62.90;;;;;;4975948;28;20122;-83
2022/12/25 06:05:31;;;;;;;10.25;5.05;;;14.20;62.70;;;;;;4972220;28;20114;-83
2022/12/25 06:07:56;;;;;;;12.65;5.28;;;14.20;62.60;;;;;;4966776;28;20050;-84
2022/12/25 06:10:22;;;;;;;10.80;4.88;;;14.20;63.20;;;;;;4962079;28;20051;-84
2022/12/25 06:12:48;;;;;;;14.23;5.85;;;14.20;62.70;;;;;;4956383;29;20027;-84
2022/12/25 06:15:14;;;;;;;9.50;4.80;;;14.20;62.40;;;;;;4967016;28;20038;-85
2022/12/25 06:17:39;;;;;;;8.77;4.82;;;14.40;62.00;;;;;;4975816;28;20023;-87
2022/12/25 06:20:06;;;;;;;10.25;5.65;;;14.40;62.00;;;;;;4975971;28;20019;-84
2022/12/25 06:22:33;;;;;;;12.57;6.20;;;14.30;62.00;;;;;;4975565;28;20066;-84
2022/12/25 06:24:59;;;;;;;10.32;5.30;;;14.40;61.40;;;;;;4965184;28;20023;-84
2022/12/25 06:27:27;;;;;;;12.27;5.88;;;14.30;61.60;;;;;;4956422;29;20027;-86
2022/12/25 06:29:53;;;;;;;12.35;5.65;;;14.30;60.80;;;;;;4960144;28;20479;-84
2022/12/25 06:32:18;;;;;;;11.57;6.10;;;14.30;61.50;;;;;;4956681;29;20031;-91
2022/12/25 06:34:44;;;;;;;9.45;5.40;;;14.40;61.00;;;;;;4956825;29;20091;-91
2022/12/25 06:37:10;;;;;;;11.27;6.07;;;14.50;60.80;;;;;;4956159;29;20121;-85
2022/12/25 06:39:36;;;;;;;11.90;5.75;;;14.40;60.70;;;;;;4956135;29;20059;-84
2022/12/25 06:42:02;;;;;;;14.07;6.03;;;14.40;60.90;;;;;;4974771;28;20030;-87
2022/12/25 06:44:28;;;;;;;15.02;6.50;;;14.30;60.70;;;;;;4975496;28;20030;-90
2022/12/25 06:46:54;;;;;;;14.60;7.40;;;14.40;60.60;;;;;;4975743;28;20058;-88
2022/12/25 06:49:20;;;;;;;36.30;22.50;;;14.40;60.70;;;;;;4975542;28;20058;-85
2022/12/25 06:51:46;;;;;;;15.23;8.18;;;14.40;60.50;;;;;;4975238;28;20058;-91
2022/12/25 06:54:12;;;;;;;11.13;6.70;;;14.00;61.10;;;;;;4975556;28;20061;-91
2022/12/25 06:56:38;;;;;;;10.32;6.30;;;13.90;61.90;;;;;;4974221;28;20044;-88
2022/12/25 06:59:08;;;;;;;33.95;18.70;;;14.00;61.40;;;;;;4970637;28;20039;-84
2022/12/25 07:01:45;;;;;;;17.10;9.93;;;14.20;61.10;;;;;;4975976;28;20057;-91
2022/12/25 07:04:18;;;;;;;15.38;6.38;;;14.20;61.00;;;;;;4975283;28;20443;-88
2022/12/25 07:06:44;;;;;;;17.70;7.05;;;14.20;61.60;;;;;;4974883;28;20045;-82
2022/12/25 07:09:09;;;;;;;15.13;7.32;;;14.00;62.10;;;;;;4975203;28;20418;-87
2022/12/25 07:11:35;;;;;;;13.38;7.45;;;13.90;62.40;;;;;;4994511;28;20397;-84
2022/12/25 07:14:01;;;;;;;12.15;7.10;;;14.00;62.10;;;;;;4994615;28;20038;-85
2022/12/25 07:16:27;;;;;;;14.77;6.75;;;13.90;61.90;;;;;;4984633;28;20035;-90
2022/12/25 07:18:53;;;;;;;16.48;8.15;;;14.20;61.50;;;;;;4975091;28;20030;-87
2022/12/25 07:21:23;;;;;;;19.77;9.80;;;14.30;60.30;;;;;;4955380;28;20088;-84
2022/12/25 07:23:49;;;;;;;17.67;9.52;;;14.20;61.10;;;;;;4974376;28;20062;-84
2022/12/25 07:26:16;;;;;;;15.15;8.90;;;14.00;61.40;;;;;;4968974;28;20015;-88
2022/12/25 07:28:42;;;;;;;14.85;8.07;;;13.90;61.10;;;;;;4955039;29;20215;-90
2022/12/25 07:31:15;;;;;;;16.27;8.98;;;13.90;61.10;;;;;;4955305;28;20033;-85
2022/12/25 07:33:41;;;;;;;20.30;11.20;;;13.90;61.30;;;;;;4955339;29;20040;-87
2022/12/25 07:36:08;;;;;;;17.08;8.85;;;13.90;61.80;;;;;;4955660;29;20034;-87
2022/12/25 07:38:34;;;;;;;14.20;7.45;;;14.00;61.30;;;;;;4962983;28;20023;-91
2022/12/25 07:41:00;;;;;;;14.38;8.00;;;14.10;61.80;;;;;;4970223;28;20036;-85
2022/12/25 07:43:26;;;;;;;12.40;7.80;;;14.20;61.10;;;;;;4970644;28;20039;-85
2022/12/25 07:45:56;;;;;;;15.10;7.57;;;14.40;61.00;;;;;;4974676;28;20482;-87
2022/12/25 07:48:22;;;;;;;13.75;8.25;;;14.50;60.70;;;;;;4974395;28;20127;-86
2022/12/25 07:50:48;;;;;;;15.07;9.77;;;14.70;60.70;;;;;;4965808;28;20027;-90
2022/12/25 07:53:13;;;;;;;20.80;14.07;;;14.70;60.50;;;;;;4965717;28;20027;-87
2022/12/25 07:55:39;;;;;;;29.15;19.70;;;14.80;60.40;;;;;;4960540;28;20023;-88
2022/12/25 07:58:05;;;;;;;19.92;12.55;;;15.00;60.30;;;;;;4975380;28;20023;-89
2022/12/25 08:00:31;;;;;;;24.42;10.36;;;15.10;59.60;;;;;;4628783;28;10001322;-82
2022/12/25 08:02:58;;;;;;;21.80;11.73;;;14.80;60.10;;;;;;4961401;28;20030;-88
2022/12/25 08:05:23;;;;;;;25.45;14.55;;;14.50;61.10;;;;;;4965091;28;20046;-87
2022/12/25 08:07:54;;;;;;;28.73;18.23;;;14.80;61.50;;;;;;4967976;28;20378;-85
2022/12/25 08:10:20;;;;;;;25.23;15.07;;;15.30;60.10;;;;;;4975614;28;20141;-86
2022/12/25 08:12:46;;;;;;;23.52;14.50;;;15.60;59.50;;;;;;4972453;28;20039;-89
2022/12/25 08:15:12;;;;;;;22.88;11.88;;;16.00;59.20;;;;;;4974347;28;20023;-83
2022/12/25 08:17:38;;;;;;;17.80;9.95;;;16.20;58.20;;;;;;4965704;28;20066;-88
2022/12/25 08:20:05;;;;;;;19.38;10.48;;;16.50;57.60;;;;;;4976044;28;20065;-83
2022/12/25 08:22:30;;;;;;;20.77;11.57;;;16.70;57.40;;;;;;4992221;28;20097;-88
2022/12/25 08:24:56;;;;;;;21.70;12.45;;;16.80;57.20;;;;;;4975550;28;20024;-89
2022/12/25 08:27:22;;;;;;;21.85;12.13;;;16.90;57.10;;;;;;4958351;29;20038;-89
2022/12/25 08:29:48;;;;;;;18.50;11.80;;;17.10;57.10;;;;;;4973617;28;20038;-86
2022/12/25 08:32:13;;;;;;;17.02;11.70;;;17.30;56.60;;;;;;4975258;28;20031;-83
2022/12/25 08:34:39;;;;;;;35.03;25.88;;;17.50;56.20;;;;;;4976186;28;20031;-85
2022/12/25 08:37:05;;;;;;;28.60;16.83;;;17.20;56.80;;;;;;4976202;28;20081;-87
2022/12/25 08:39:31;;;;;;;37.38;20.77;;;17.00;56.70;;;;;;4976371;28;20382;-90
2022/12/25 08:41:56;;;;;;;33.47;19.85;;;16.70;57.50;;;;;;4976366;28;20054;-85
2022/12/25 08:44:22;;;;;;;31.02;20.63;;;16.50;58.00;;;;;;4975856;28;20501;-85
2022/12/25 08:46:48;;;;;;;38.38;23.75;;;16.70;58.00;;;;;;4976591;28;20037;-86
2022/12/25 08:49:15;;;;;;;44.90;25.17;;;16.60;58.10;;;;;;4992615;28;20035;-84
2022/12/25 08:51:42;;;;;;;39.28;24.92;;;16.50;58.10;;;;;;4993157;28;20071;-84
2022/12/25 08:54:08;;;;;;;26.08;17.40;;;16.20;58.80;;;;;;4990466;28;20475;-89
2022/12/25 08:56:35;;;;;;;18.98;10.55;;;16.50;59.00;;;;;;4989856;28;20037;-85
2022/12/25 08:59:01;;;;;;;18.20;10.50;;;16.80;57.10;;;;;;4976086;28;20041;-85
2022/12/25 09:01:26;;;;;;;18.55;10.15;;;16.50;58.20;;;;;;4983536;28;20038;-88
2022/12/25 09:03:52;;;;;;;17.58;10.82;;;16.20;59.60;;;;;;4976731;28;20031;-85
2022/12/25 09:06:18;;;;;;;18.52;11.18;;;16.70;58.50;;;;;;4971530;28;20038;-83
2022/12/25 09:08:44;;;;;;;17.27;10.55;;;17.50;57.30;;;;;;4993173;28;20030;-89
2022/12/25 09:11:12;;;;;;;18.77;10.77;;;18.20;56.40;;;;;;4973350;28;20383;-86
2022/12/25 09:13:39;;;;;;;23.88;15.50;;;19.80;55.00;;;;;;4970676;28;20023;-90
2022/12/25 09:16:10;;;;;;;37.97;21.88;;;22.00;52.40;;;;;;4973816;28;20030;-87
2022/12/25 09:18:36;;;;;;;29.35;19.48;;;24.20;49.30;;;;;;4968858;28;20166;-87
2022/12/25 09:21:05;;;;;;;25.42;17.38;;;25.80;47.50;;;;;;4974723;28;20126;-83
2022/12/25 09:23:32;;;;;;;29.20;19.00;;;26.70;46.00;;;;;;4986031;28;20035;-88
2022/12/25 09:25:58;;;;;;;26.23;16.58;;;27.30;45.00;;;;;;4990658;28;20051;-84
2022/12/25 09:28:24;;;;;;;28.73;18.67;;;26.80;44.80;;;;;;4992712;28;20025;-83
2022/12/25 09:30:51;;;;;;;43.58;27.40;;;26.60;45.60;;;;;;4972795;28;20023;-84
2022/12/25 09:33:18;;;;;;;49.47;28.48;;;27.40;45.10;;;;;;4968420;28;20031;-86
2022/12/25 09:35:51;;;;;;;32.25;19.45;;;28.50;44.70;;;;;;4974245;28;20384;-91
2022/12/25 09:38:16;;;;;;;29.48;18.00;;;29.60;43.70;;;;;;4959860;28;20038;-86
2022/12/25 09:40:42;;;;;;;42.40;25.02;;;30.30;43.30;;;;;;4958745;29;20032;-94
2022/12/25 09:43:13;;;;;;;20.67;13.02;;;30.60;43.30;;;;;;4965200;29;20085;-84
2022/12/25 09:45:39;;;;;;;50.50;20.88;;;31.00;42.30;;;;;;4962499;29;20028;-85
2022/12/25 09:48:05;;;;;;;58.58;17.92;;;30.60;42.40;;;;;;4960703;28;20098;-94
2022/12/25 09:50:36;;;;;;;19.42;11.82;;;30.70;42.60;;;;;;4960023;29;20031;-85
2022/12/25 09:53:22;;;;;;;13.32;7.70;;;30.70;42.10;;;;;;4961236;28;20030;-83
2022/12/25 09:56:03;;;;;;;11.68;6.50;;;30.00;42.40;;;;;;4977265;28;20386;-96
2022/12/25 09:58:30;;;;;;;11.93;7.03;;;29.50;43.00;;;;;;4974728;28;20061;-85
2022/12/25 10:01:11;;;;;;;13.00;7.25;;;29.50;42.70;;;;;;4633793;28;10000330;-91
2022/12/25 10:03:52;;;;;;;14.70;8.90;;;29.60;42.70;;;;;;4956149;29;20553;-85
2022/12/25 10:06:29;;;;;;;;;;;30.50;42.50;;;;;;4955977;29;20078;-95
2022/12/25 10:09:20;;;;;;;15.27;8.77;;;31.00;42.10;;;;;;4956997;29;20322;-95
2022/12/25 10:12:08;;;;;;;14.60;9.07;;;31.60;42.10;;;;;;4970994;28;20516;-86
2022/12/25 10:14:40;;;;;;;15.98;9.70;;;31.80;41.60;;;;;;4955194;29;20101;-83
2022/12/25 10:17:36;;;;;;;17.55;9.82;;;31.90;41.60;;;;;;4975466;28;20042;-83
2022/12/25 10:20:29;;;;;;;15.07;9.75;;;31.80;41.50;;;;;;4955040;29;20059;-83
2022/12/25 10:23:06;;;;;;;12.38;8.07;;;31.40;41.90;;;;;;4991611;28;20065;-89
2022/12/25 10:25:37;;;;;;;15.18;7.93;;;31.10;42.40;;;;;;4973938;28;20027;-83
2022/12/25 10:28:14;;;;;;;12.75;7.90;;;31.20;42.10;;;;;;4970266;28;20098;-91
2022/12/25 10:30:43;;;;;;;13.65;11.77;;;31.30;41.80;;;;;;4977637;28;20041;-83
2022/12/25 10:33:11;;;;;;;9.23;6.28;;;31.20;41.70;;;;;;4980061;28;20090;-84
2022/12/25 10:35:38;;;;;;;11.77;7.05;;;30.00;41.50;;;;;;4976924;28;20054;-83
2022/12/25 10:38:17;;;;;;;12.85;7.63;;;29.90;42.80;;;;;;4974976;28;20023;-83
2022/12/25 10:41:08;;;;;;;15.85;10.88;;;30.70;42.30;;;;;;4990633;28;20063;-82
2022/12/25 10:43:41;;;;;;;17.25;10.02;;;30.20;42.10;;;;;;4978051;28;20061;-91
2022/12/25 10:46:11;;;;;;;14.88;8.32;;;29.10;42.80;;;;;;4973529;28;20512;-83
2022/12/25 10:49:00;;;;;;;19.05;8.90;;;27.60;43.80;;;;;;4954538;29;20415;-85
2022/12/25 10:51:35;;;;;;;23.58;12.18;;;27.10;44.30;;;;;;4954982;29;20031;-83
2022/12/25 10:54:02;;;;;;;19.85;12.00;;;26.50;45.20;;;;;;4955157;29;20031;-83
2022/12/25 10:56:28;;;;;;;17.20;10.55;;;25.60;46.30;;;;;;4955101;29;20027;-90
2022/12/25 10:59:09;;;;;;;16.33;10.30;;;24.70;47.00;;;;;;4955340;29;20019;-87
2022/12/25 11:01:35;;;;;;;17.90;10.63;;;23.00;49.00;;;;;;4960180;28;20039;-84
2022/12/25 11:04:01;;;;;;;18.17;10.57;;;22.10;50.40;;;;;;4971716;28;20023;-82
2022/12/25 11:06:31;;;;;;;15.02;9.98;;;21.60;51.20;;;;;;4955791;28;20051;-82
2022/12/25 11:08:58;;;;;;;18.23;10.55;;;21.80;51.80;;;;;;4984858;28;20541;-86
2022/12/25 11:11:25;;;;;;;14.25;8.65;;;22.00;51.20;;;;;;4973044;28;20727;-83
2022/12/25 11:13:54;;;;;;;13.65;8.30;;;22.40;50.50;;;;;;4973027;28;20499;-82
2022/12/25 11:16:38;;;;;;;12.70;8.88;;;22.30;50.50;;;;;;4966300;28;20023;-83
2022/12/25 11:19:30;;;;;;;13.25;7.63;;;22.10;50.50;;;;;;4974981;28;20058;-83
2022/12/25 11:21:59;;;;;;;13.98;8.60;;;21.00;51.70;;;;;;4954806;29;20070;-92
2022/12/25 11:24:28;;;;;;;37.20;14.82;;;19.50;54.10;;;;;;4985112;28;20053;-87
2022/12/25 11:26:59;;;;;;;51.05;21.33;;;19.00;55.60;;;;;;4973717;28;20023;-81
2022/12/25 11:29:43;;;;;;;57.38;23.90;;;18.90;56.00;;;;;;4974417;28;20034;-82
2022/12/25 11:32:26;;;;;;;38.70;16.83;;;19.20;55.70;;;;;;4974997;28;20478;-87
2022/12/25 11:34:52;;;;;;;20.83;11.50;;;19.40;54.90;;;;;;4972309;28;20039;-94
2022/12/25 11:37:34;;;;;;;24.45;11.15;;;19.30;54.90;;;;;;4972676;28;20029;-93
2022/12/25 11:40:00;;;;;;;20.50;10.23;;;19.20;55.30;;;;;;4979505;28;20019;-93
2022/12/25 11:42:29;;;;;;;46.47;18.40;;;19.00;55.80;;;;;;4970215;28;20031;-85
2022/12/25 11:44:57;;;;;;;39.10;20.02;;;18.70;56.40;;;;;;4971683;28;20104;-92
2022/12/25 11:47:38;;;;;;;31.90;14.75;;;18.80;56.30;;;;;;4972746;28;20023;-85
2022/12/25 11:50:10;;;;;;;;;;;19.10;55.60;;;;;;4971039;28;20481;-84
2022/12/25 11:52:39;;;;;;;16.33;9.57;;;19.40;55.70;;;;;;4962225;28;20290;-93
2022/12/25 11:55:28;;;;;;;17.55;9.20;;;19.20;55.20;;;;;;4967729;28;20188;-88
2022/12/25 11:58:01;;;;;;;20.90;10.83;;;19.10;55.60;;;;;;4629340;28;9999658;-83
2022/12/25 12:00:29;;;;;;;19.75;11.15;;;19.00;55.70;;;;;;4970505;28;21402;-84
2022/12/25 12:03:09;;;;;;;16.77;9.65;;;18.80;56.30;;;;;;4963639;28;20039;-90
2022/12/25 12:05:52;;;;;;;17.95;9.90;;;18.50;56.90;;;;;;4975811;28;20057;-84
2022/12/25 12:08:18;;;;;;;15.93;8.82;;;18.10;57.50;;;;;;4975384;28;20381;-93
2022/12/25 12:11:14;;;;;;;14.27;8.20;;;18.00;58.20;;;;;;4974845;28;20050;-85
2022/12/25 12:13:40;;;;;;;17.73;8.73;;;18.40;57.50;;;;;;4971243;28;20356;-83
2022/12/25 12:16:07;;;;;;;14.68;9.48;;;18.80;56.90;;;;;;4972133;28;20462;-83
2022/12/25 12:18:33;;;;;;;18.25;11.05;;;18.90;56.40;;;;;;4978208;28;20035;-82
2022/12/25 12:21:07;;;;;;;17.10;9.90;;;19.00;56.20;;;;;;4972460;28;20118;-85
2022/12/25 12:23:48;;;;;;;17.35;10.88;;;19.00;55.90;;;;;;4975268;28;20042;-83
2022/12/25 12:26:27;;;;;;;18.88;11.00;;;19.10;56.10;;;;;;4971239;28;20031;-86
2022/12/25 12:28:58;;;;;;;19.75;9.70;;;19.20;56.00;;;;;;4979779;28;20144;-84
2022/12/25 12:31:34;;;;;;;15.95;9.02;;;19.40;55.60;;;;;;4964670;28;20034;-82
2022/12/25 12:34:00;;;;;;;17.13;10.27;;;19.30;55.90;;;;;;4975652;28;20031;-82
2022/12/25 12:36:26;;;;;;;15.23;8.68;;;19.20;55.70;;;;;;4973997;28;20026;-83
2022/12/25 12:38:55;;;;;;;13.05;8.70;;;19.10;55.70;;;;;;4956459;29;20039;-88
2022/12/25 12:41:21;;;;;;;16.17;9.00;;;19.20;55.70;;;;;;4956405;28;20028;-82
2022/12/25 12:44:03;;;;;;;16.25;8.45;;;19.20;55.70;;;;;;4971355;28;20047;-87
2022/12/25 12:49:36;;;;;;;16.55;8.65;;;18.90;55.90;;;;;;4935987;29;20496;-83
2022/12/25 12:55:12;;;;;;;17.60;8.45;;;19.30;55.60;;;;;;4912528;29;20107;-82
2022/12/25 12:58:05;;;;;;;12.98;7.95;;;19.50;55.30;;;;;;4917955;29;20063;-81
2022/12/25 13:00:51;;;;;;;17.70;8.55;;;19.70;54.80;;;;;;4937863;29;20064;-82
2022/12/25 13:03:31;;;;;;;18.13;9.75;;;19.80;55.20;;;;;;4923283;29;20139;-80
2022/12/25 13:06:03;;;;;;;18.48;9.70;;;19.70;55.40;;;;;;4922939;29;20046;-82
2022/12/25 13:08:41;;;;;;;27.90;15.05;;;19.40;55.60;;;;;;4940121;29;20112;-83
2022/12/25 13:11:18;;;;;;;19.73;11.75;;;19.30;55.40;;;;;;4922173;29;20142;-86
2022/12/25 13:13:45;;;;;;;18.40;10.75;;;19.50;55.70;;;;;;4937084;29;20219;-83
2022/12/25 13:16:35;;;;;;;19.40;11.70;;;19.50;55.50;;;;;;4934018;29;20059;-89
2022/12/25 13:19:06;;;;;;;17.88;11.55;;;19.70;55.10;;;;;;4937542;29;20480;-85
2022/12/25 13:21:32;;;;;;;17.98;10.65;;;19.80;55.00;;;;;;4937462;29;20082;-81
2022/12/25 13:24:07;;;;;;;19.52;11.00;;;19.80;55.00;;;;;;4958236;28;20046;-83
2022/12/25 13:26:34;;;;;;;15.43;9.98;;;19.90;55.00;;;;;;4971656;28;20081;-89
2022/12/25 13:28:59;;;;;;;16.65;10.02;;;20.00;54.90;;;;;;4978276;28;20031;-88
2022/12/25 13:31:28;;;;;;;20.23;10.38;;;19.90;54.90;;;;;;4978244;28;20111;-83
2022/12/25 13:34:13;;;;;;;21.40;13.27;;;20.00;54.60;;;;;;4973620;28;20035;-82
2022/12/25 13:36:39;;;;;;;21.05;12.43;;;19.90;54.90;;;;;;4974587;28;20019;-82
2022/12/25 13:39:13;;;;;;;23.38;13.10;;;20.10;54.90;;;;;;4974128;28;20042;-90
2022/12/25 13:45:08;;;;;;;;;;;20.30;54.90;;;;;;4978293;28;20062;-85
2022/12/25 13:47:37;;;;;;;24.42;15.68;;;20.30;54.60;;;;;;4963591;28;19945;-92
2022/12/25 13:50:29;;;;;;;22.55;14.13;;;20.40;54.40;;;;;;4964835;28;20062;-83
2022/12/25 13:52:57;;;;;;;27.63;15.70;;;20.40;54.20;;;;;;4954231;28;20042;-82
2022/12/25 13:55:24;;;;;;;28.13;16.00;;;20.30;54.30;;;;;;4975884;28;20494;-84
2022/12/25 13:57:56;;;;;;;25.38;16.95;;;20.30;54.40;;;;;;4974847;28;20034;-85
2022/12/25 14:00:45;;;;;;;22.70;14.05;;;20.40;54.40;;;;;;4271190;28;10000473;-83
2022/12/25 14:03:29;;;;;;;18.70;12.95;;;20.40;54.30;;;;;;4958653;28;20082;-90
2022/12/25 14:06:17;;;;;;;20.23;12.77;;;20.20;54.20;;;;;;4963592;28;20067;-85
2022/12/25 14:08:46;;;;;;;23.13;13.38;;;20.30;54.40;;;;;;4939269;28;20039;-92
2022/12/25 14:11:19;;;;;;;19.50;13.13;;;20.30;54.20;;;;;;4958695;28;20038;-85
2022/12/25 14:13:46;;;;;;;23.10;14.73;;;20.30;54.20;;;;;;4958596;28;20023;-82
2022/12/25 14:16:15;;;;;;;22.55;14.90;;;20.20;54.50;;;;;;4615411;28;9999998;-83
2022/12/25 14:18:53;;;;;;;24.10;15.38;;;20.10;54.80;;;;;;4959313;28;20043;-91
2022/12/25 14:21:24;;;;;;;27.17;15.68;;;20.10;54.90;;;;;;4971771;28;20058;-81
2022/12/25 14:23:50;;;;;;;24.50;15.02;;;20.10;54.80;;;;;;4973476;28;20093;-84
2022/12/25 14:26:26;;;;;;;21.15;13.80;;;20.10;54.70;;;;;;4970402;28;20495;-83
2022/12/25 14:29:04;;;;;;;24.23;13.60;;;20.10;54.80;;;;;;4985867;28;20041;-88
2022/12/25 14:31:31;;;;;;;26.65;14.13;;;20.00;55.00;;;;;;4974797;28;20036;-90
2022/12/25 14:34:02;;;;;;;23.35;13.82;;;19.90;55.30;;;;;;4957231;29;20023;-82
2022/12/25 14:36:31;;;;;;;26.70;15.07;;;19.80;55.70;;;;;;4959646;28;20050;-84
2022/12/25 14:38:58;;;;;;;22.63;13.93;;;19.80;55.70;;;;;;4974209;28;20034;-86
2022/12/25 14:41:36;;;;;;;22.58;14.10;;;19.80;55.60;;;;;;4972442;28;20382;-87
2022/12/25 14:44:05;;;;;;;25.77;14.98;;;19.80;55.70;;;;;;4975401;28;20081;-87